createdAt,value
2023-01-13T00:02:08.386Z,85.85
2023-01-13T00:05:57.616Z,85.62
2023-01-13T00:09:46.680Z,85.46
2023-01-13T00:13:36.157Z,85.81
2023-01-13T00:17:25.224Z,85.71
2023-01-13T00:21:14.566Z,86.20
2023-01-13T00:25:03.640Z,85.97
2023-01-13T00:28:52.759Z,85.89
2023-01-13T00:32:41.848Z,86.06
2023-01-13T00:36:36.579Z,86.25
2023-01-13T00:40:25.701Z,86.36
2023-01-13T00:44:14.735Z,86.57
2023-01-13T00:48:03.798Z,86.40
2023-01-13T00:51:58.917Z,86.63
2023-01-13T00:55:48.088Z,86.72
2023-01-13T00:59:37.234Z,87.04
2023-01-13T01:03:29.326Z,87.67
2023-01-13T01:07:18.461Z,86.88
2023-01-13T01:11:07.570Z,87.34
2023-01-13T01:14:56.642Z,87.23
2023-01-13T01:18:45.681Z,87.30
2023-01-13T01:22:34.913Z,87.09
2023-01-13T01:26:23.989Z,87.07
2023-01-13T01:30:13.104Z,86.68
2023-01-13T01:34:02.153Z,86.88
2023-01-13T01:37:51.196Z,87.18
2023-01-13T01:41:40.310Z,86.99
2023-01-13T01:45:50.742Z,87.23
2023-01-13T01:49:39.894Z,87.00
2023-01-13T01:53:29.100Z,86.72
2023-01-13T01:57:18.172Z,86.62
2023-01-13T02:01:07.708Z,86.85
2023-01-13T02:04:56.906Z,86.66
2023-01-13T02:08:45.988Z,86.43
2023-01-13T02:12:50.294Z,86.29
2023-01-13T02:16:48.336Z,86.58
2023-01-13T02:20:35.793Z,86.61
2023-01-13T02:24:23.658Z,86.70
2023-01-13T02:28:24.591Z,86.63
2023-01-13T02:32:13.746Z,86.63
2023-01-13T02:36:08.563Z,86.60
2023-01-13T02:40:03.576Z,86.45
2023-01-13T02:43:57.245Z,86.41
2023-01-13T02:47:46.330Z,86.31
2023-01-13T02:51:50.395Z,86.32
2023-01-13T02:55:42.268Z,86.26
2023-01-13T02:59:31.337Z,86.19
2023-01-13T03:03:20.438Z,86.41
2023-01-13T03:07:12.582Z,86.30
2023-01-13T03:11:20.018Z,86.18
2023-01-13T03:15:11.606Z,86.23
2023-01-13T03:19:12.974Z,86.21
2023-01-13T03:23:03.499Z,86.61
2023-01-13T03:27:14.082Z,86.32
2023-01-13T03:31:27.678Z,86.43
2023-01-13T03:35:28.716Z,86.36
2023-01-13T03:39:22.963Z,86.11
2023-01-13T03:43:20.983Z,86.38
2023-01-13T03:47:12.682Z,86.36
2023-01-13T03:51:11.129Z,86.47
2023-01-13T03:55:00.185Z,86.23
2023-01-13T03:58:55.311Z,86.92
2023-01-13T04:02:53.736Z,87.37
2023-01-13T04:06:51.743Z,87.25
2023-01-13T04:10:46.887Z,87.01
2023-01-13T04:14:35.909Z,86.86
2023-01-13T04:18:24.991Z,86.72
2023-01-13T04:22:14.071Z,86.58
2023-01-13T04:26:03.197Z,86.48
2023-01-13T04:29:52.381Z,86.71
2023-01-13T04:33:41.481Z,86.83
2023-01-13T04:37:30.786Z,87.18
2023-01-13T04:41:12.538Z,87.17
2023-01-13T04:44:55.961Z,87.41
2023-01-13T04:48:45.163Z,87.25
2023-01-13T04:52:34.221Z,87.08
2023-01-13T04:56:23.288Z,86.82
2023-01-13T05:00:12.529Z,86.93
2023-01-13T05:04:01.782Z,86.96
2023-01-13T05:07:50.889Z,87.01
2023-01-13T05:11:41.133Z,86.84
2023-01-13T05:15:28.772Z,86.85
2023-01-13T05:19:17.818Z,86.68
2023-01-13T05:23:05.513Z,86.71
2023-01-13T05:26:54.579Z,87.04
2023-01-13T05:30:43.809Z,86.79
2023-01-13T05:34:32.907Z,86.68
2023-01-13T05:38:22.024Z,86.80
2023-01-13T05:42:09.873Z,86.81
2023-01-13T05:45:58.998Z,87.29
2023-01-13T05:49:48.224Z,87.08
2023-01-13T05:53:37.361Z,87.31
2023-01-13T05:57:26.487Z,87.27
2023-01-13T06:01:15.850Z,87.43
2023-01-13T06:05:05.063Z,87.11
2023-01-13T06:08:54.124Z,87.07
2023-01-13T06:12:43.164Z,87.09
2023-01-13T06:16:32.330Z,87.02
2023-01-13T06:20:21.417Z,87.06
2023-01-13T06:24:10.491Z,86.94
2023-01-13T06:32:06.203Z,87.48
2023-01-13T06:35:55.283Z,87.41
2023-01-13T06:39:44.357Z,87.37
2023-01-13T06:43:36.335Z,87.44
2023-01-13T06:47:25.882Z,87.46
2023-01-13T06:51:14.956Z,87.44
2023-01-13T06:55:04.085Z,87.47
2023-01-13T06:58:53.113Z,87.29
2023-01-13T07:02:42.312Z,87.52
2023-01-13T07:06:31.427Z,87.31
2023-01-13T07:10:20.499Z,87.78
2023-01-13T07:14:08.083Z,87.78
2023-01-13T07:17:57.212Z,87.34
2023-01-13T07:21:46.323Z,87.43
2023-01-13T07:25:35.404Z,87.27
2023-01-13T07:29:24.425Z,87.31
2023-01-13T07:33:13.583Z,87.47
2023-01-13T07:37:05.666Z,87.56
2023-01-13T07:40:54.841Z,87.74
2023-01-13T07:44:46.548Z,87.53
2023-01-13T07:48:35.692Z,87.26
2023-01-13T07:52:24.821Z,87.33
2023-01-13T07:56:11.230Z,87.45
2023-01-13T08:00:00.519Z,87.52
2023-01-13T08:03:49.687Z,87.29
2023-01-13T08:07:38.729Z,87.51
2023-01-13T08:11:27.835Z,87.71
2023-01-13T08:15:16.942Z,88.06
2023-01-13T08:19:06.017Z,87.76
2023-01-13T08:22:55.087Z,88.01
2023-01-13T08:26:44.186Z,88.16
2023-01-13T08:30:33.328Z,88.22
2023-01-13T08:34:22.522Z,87.79
2023-01-13T08:38:11.597Z,87.91
2023-01-13T08:42:16.155Z,87.96
2023-01-13T08:46:05.597Z,88.00
2023-01-13T08:49:54.808Z,87.88
2023-01-13T08:53:43.911Z,87.60
2023-01-13T08:57:33.366Z,87.74
2023-01-13T09:01:22.622Z,88.02
2023-01-13T09:05:17.962Z,88.07
2023-01-13T09:09:07.063Z,88.14
2023-01-13T09:12:54.644Z,87.76
2023-01-13T09:16:43.712Z,87.67
2023-01-13T09:20:32.752Z,87.63
2023-01-13T09:24:21.871Z,87.81
2023-01-13T09:28:10.972Z,87.74
2023-01-13T09:32:00.084Z,87.70
2023-01-13T09:35:49.435Z,87.55
2023-01-13T09:39:38.753Z,87.65
2023-01-13T09:43:32.097Z,87.83
2023-01-13T09:47:18.845Z,87.74
2023-01-13T09:51:06.611Z,87.63
2023-01-13T09:55:01.497Z,87.48
2023-01-13T09:58:50.614Z,87.27
2023-01-13T10:02:42.288Z,87.52
2023-01-13T10:06:37.439Z,87.46
2023-01-13T10:10:25.270Z,87.25
2023-01-13T10:14:17.132Z,87.51
2023-01-13T10:18:15.083Z,87.59
2023-01-13T10:22:13.203Z,87.20
2023-01-13T10:26:10.360Z,87.08
2023-01-13T10:30:05.411Z,87.69
2023-01-13T10:34:00.245Z,87.11
2023-01-13T10:37:59.871Z,87.18
2023-01-13T10:41:55.222Z,86.97
2023-01-13T10:45:47.169Z,86.63
2023-01-13T10:49:36.368Z,86.65
2023-01-13T10:53:37.732Z,86.95
2023-01-13T10:57:27.101Z,86.86
2023-01-13T11:01:31.490Z,86.73
2023-01-13T11:05:23.544Z,86.37
2023-01-13T11:09:24.719Z,86.47
2023-01-13T11:13:32.166Z,86.75
2023-01-13T11:17:21.308Z,86.75
2023-01-13T11:21:19.578Z,86.32
2023-01-13T11:25:26.918Z,86.39
2023-01-13T11:29:21.946Z,86.47
2023-01-13T11:33:11.052Z,86.66
2023-01-13T11:37:05.883Z,86.34
2023-01-13T11:41:16.260Z,85.92
2023-01-13T11:45:05.359Z,86.06
2023-01-13T11:48:53.889Z,85.81
2023-01-13T11:52:52.119Z,86.22
2023-01-13T11:56:46.968Z,86.21
2023-01-13T12:00:38.782Z,85.71
2023-01-13T12:04:33.857Z,85.84
2023-01-13T12:08:41.325Z,85.56
2023-01-13T12:12:42.631Z,85.52
2023-01-13T12:16:31.769Z,85.17
2023-01-13T12:20:24.096Z,84.77
2023-01-13T12:24:34.249Z,84.68
2023-01-13T12:28:37.343Z,84.98
2023-01-13T12:32:29.213Z,84.93
2023-01-13T12:36:18.322Z,84.56
2023-01-13T12:40:22.688Z,84.59
2023-01-13T12:44:39.027Z,84.64
2023-01-13T12:48:34.205Z,83.92
2023-01-13T12:52:35.094Z,84.37
2023-01-13T12:56:26.970Z,80.82
2023-01-13T13:00:19.421Z,83.28
2023-01-13T13:04:08.570Z,79.02
2023-01-13T13:08:00.484Z,82.48
2023-01-13T13:11:57.143Z,81.46
2023-01-13T13:16:04.493Z,82.03
2023-01-13T13:19:59.387Z,79.74
2023-01-13T13:23:48.537Z,80.57
2023-01-13T13:27:37.430Z,79.58
2023-01-13T13:31:31.610Z,71.31
2023-01-13T13:35:31.644Z,71.05
2023-01-13T13:39:34.621Z,73.32
2023-01-13T13:43:21.964Z,71.08
2023-01-13T13:47:24.899Z,74.12
2023-01-13T13:50:57.693Z,73.62
2023-01-13T13:54:45.776Z,73.73
2023-01-13T13:58:31.393Z,74.14
2023-01-13T14:02:14.988Z,72.42
2023-01-13T14:06:08.917Z,70.45
2023-01-13T14:09:58.001Z,73.47
2023-01-13T14:13:35.967Z,74.69
2023-01-13T14:17:18.205Z,73.70
2023-01-13T14:20:57.787Z,74.50
2023-01-13T14:24:58.996Z,75.51
2023-01-13T14:28:50.654Z,75.05
2023-01-13T14:32:39.733Z,75.99
2023-01-13T14:36:43.798Z,76.06
2023-01-13T14:40:32.937Z,76.03
2023-01-13T14:44:24.694Z,75.89
2023-01-13T14:48:22.993Z,75.95
2023-01-13T14:52:12.129Z,75.87
2023-01-13T14:56:12.594Z,76.20
2023-01-13T15:00:13.812Z,76.27
2023-01-13T15:04:05.685Z,76.38
2023-01-13T15:07:54.800Z,76.15
2023-01-13T15:11:50.177Z,76.42
2023-01-13T15:15:39.338Z,76.50
2023-01-13T15:19:28.542Z,76.78
2023-01-13T15:23:20.654Z,76.79
2023-01-13T15:27:21.129Z,76.97
2023-01-13T15:31:16.285Z,76.95
2023-01-13T15:35:05.355Z,77.32
2023-01-13T15:38:57.072Z,77.28
2023-01-13T15:42:44.741Z,77.56
2023-01-13T15:46:32.509Z,77.81
2023-01-13T15:50:21.743Z,77.87
2023-01-13T15:54:10.857Z,77.81
2023-01-13T15:58:02.704Z,78.33
2023-01-13T16:01:51.811Z,78.14
2023-01-13T16:05:40.921Z,78.15
2023-01-13T16:09:30.014Z,78.23
2023-01-13T16:13:19.116Z,78.64
2023-01-13T16:17:11.003Z,78.92
2023-01-13T16:21:00.226Z,78.88
2023-01-13T16:24:49.282Z,78.95
2023-01-13T16:28:38.414Z,78.89
2023-01-13T16:32:27.573Z,78.97
2023-01-13T16:36:16.636Z,79.37
2023-01-13T16:40:05.727Z,79.36
2023-01-13T16:43:54.894Z,79.36
2023-01-13T16:47:43.979Z,79.46
2023-01-13T16:51:36.225Z,79.41
2023-01-13T16:55:25.311Z,79.58
2023-01-13T16:59:17.404Z,79.76
2023-01-13T17:03:06.483Z,79.84
2023-01-13T17:06:58.071Z,79.92
2023-01-13T17:10:47.246Z,79.87
2023-01-13T17:14:36.409Z,79.98
2023-01-13T17:18:25.551Z,80.16
2023-01-13T17:22:14.920Z,80.26
2023-01-13T17:26:03.989Z,80.07
2023-01-13T17:29:56.250Z,80.33
2023-01-13T17:33:45.335Z,80.20
2023-01-13T17:37:34.430Z,80.08
2023-01-13T17:41:23.611Z,80.18
2023-01-13T17:45:15.522Z,80.20
2023-01-13T17:49:04.640Z,80.17
2023-01-13T17:52:53.848Z,80.04
2023-01-13T17:56:42.957Z,80.14
2023-01-13T18:00:32.022Z,80.24
2023-01-13T18:04:13.694Z,80.25
2023-01-13T18:08:02.813Z,80.24
2023-01-13T18:11:51.922Z,80.28
2023-01-13T18:15:41.048Z,80.23
2023-01-13T18:19:28.593Z,80.26
2023-01-13T18:23:16.329Z,80.35
2023-01-13T18:27:09.604Z,80.45
2023-01-13T18:30:58.752Z,80.69
2023-01-13T18:34:48.001Z,80.68
2023-01-13T18:38:41.435Z,80.77
2023-01-13T18:42:29.221Z,80.73
2023-01-13T18:46:18.437Z,80.68
2023-01-13T18:50:07.587Z,80.75
2023-01-13T18:53:56.777Z,80.75
2023-01-13T18:57:45.895Z,80.58
2023-01-13T19:01:43.992Z,80.56
2023-01-13T19:05:33.431Z,80.53
2023-01-13T19:09:22.555Z,80.80
2023-01-13T19:13:11.681Z,80.87
2023-01-13T19:17:00.755Z,80.54
2023-01-13T19:20:50.135Z,80.56
2023-01-13T19:24:39.386Z,80.70
2023-01-13T19:28:28.591Z,80.73
2023-01-13T19:32:17.686Z,80.85
2023-01-13T19:36:07.094Z,80.93
2023-01-13T19:39:56.207Z,81.22
2023-01-13T19:43:44.006Z,81.03
2023-01-13T19:47:33.128Z,81.63
2023-01-13T19:51:22.257Z,81.37
2023-01-13T19:55:11.491Z,81.48
2023-01-13T19:59:00.596Z,81.60
2023-01-13T20:02:49.844Z,81.42
2023-01-13T20:06:39.092Z,81.25
2023-01-13T20:10:28.269Z,81.24
2023-01-13T20:14:17.414Z,81.41
2023-01-13T20:18:06.474Z,81.35
2023-01-13T20:21:55.594Z,81.56
2023-01-13T20:25:44.887Z,81.82
2023-01-13T20:29:34.107Z,81.77
2023-01-13T20:33:23.198Z,81.45
2023-01-13T20:37:12.331Z,81.80
2023-01-13T20:41:01.442Z,81.59
2023-01-13T20:44:50.519Z,81.40
2023-01-13T20:48:39.621Z,81.53
2023-01-13T20:52:31.778Z,81.49
2023-01-13T20:56:20.994Z,81.77
2023-01-13T21:00:10.126Z,81.73
2023-01-13T21:03:59.326Z,81.93
2023-01-13T21:07:48.463Z,81.99
2023-01-13T21:11:41.791Z,81.91
2023-01-13T21:15:39.860Z,81.79
2023-01-13T21:19:28.914Z,81.85
2023-01-13T21:23:17.994Z,82.35
2023-01-13T21:27:07.168Z,82.07
2023-01-13T21:30:56.268Z,81.85
2023-01-13T21:34:45.305Z,81.96
2023-01-13T21:38:34.479Z,81.90
2023-01-13T21:42:22.199Z,81.83
2023-01-13T21:46:10.162Z,81.96
2023-01-13T21:49:59.272Z,82.28
2023-01-13T21:53:48.527Z,82.54
2023-01-13T21:57:37.743Z,82.07
2023-01-13T22:01:26.953Z,82.61
2023-01-13T22:05:16.128Z,82.27
2023-01-13T22:09:05.243Z,82.57
2023-01-13T22:12:54.482Z,82.70
2023-01-13T22:16:43.603Z,82.82
2023-01-13T22:20:32.719Z,83.83
2023-01-13T22:24:21.948Z,83.89
2023-01-13T22:28:11.238Z,83.46
2023-01-13T22:32:00.397Z,83.95
2023-01-13T22:35:49.580Z,84.56
2023-01-13T22:39:38.645Z,84.34
2023-01-13T22:43:27.665Z,84.14
2023-01-13T22:47:16.783Z,83.83
2023-01-13T22:51:05.971Z,83.93
2023-01-13T22:54:55.072Z,83.90
2023-01-13T22:58:44.242Z,83.72
2023-01-13T23:02:33.333Z,83.75
2023-01-13T23:06:22.412Z,83.80
2023-01-13T23:10:11.458Z,83.67
2023-01-13T23:14:00.594Z,83.52
2023-01-13T23:17:49.696Z,83.60
2023-01-13T23:21:44.556Z,83.57
2023-01-13T23:25:33.633Z,83.74
2023-01-13T23:29:22.772Z,83.50
2023-01-13T23:33:11.820Z,83.11
2023-01-13T23:37:00.948Z,83.13
2023-01-13T23:40:50.213Z,83.13
2023-01-13T23:44:39.287Z,83.39
2023-01-13T23:48:28.515Z,83.27
2023-01-13T23:52:17.549Z,83.45
2023-01-13T23:56:06.691Z,83.12
2023-01-13T23:59:48.388Z,83.35
